CheckWX is a tool to help pilots better visualize weather data.  It is not intended as a substitute for an official pre-flight weather briefing.

20:30:42 UTC

KFHU TAF
Sierra Vista Municipal-Libby AAF Airport
Fort Huachuca Sierra Vista, Arizona, USA
TAF KFHU 221803Z 2218/2324 31009KT 9999 SKC QNH3003INS BECMG 2300/2301 VRB06KT 9999 SKC QNH3009INS BECMG 2317/2318 31009KT 9999 SKC QNH3002INS TX20/2321Z TN06/2312Z

Mar-22@
18:00 UTC

Mar-22 @ 18:00 UTC

Mar-23@
00:00 UTC

Mar-23 @ 00:00 UTC

TAF KFHU 221803Z 2218/2324 31009KT 9999 SKC QNH3003INS
Wind
  • 310° at 9 KTS
Cloud Levels
  • Clear skies

Mar-23@
00:00 UTC

Mar-23 @ 00:00 UTC

Mar-23@
17:00 UTC

Mar-23 @ 17:00 UTC

BECMG 2300/2301 VRB06KT 9999 SKC QNH3009INS

Becoming

Becoming Conditions expected by Sat, Mar 23, 2019 @ 01:00 UTC

Wind
  • Variable at 6 KTS
Cloud Levels
  • Clear skies

Mar-23@
17:00 UTC

Mar-23 @ 17:00 UTC

Mar-24@
00:00 UTC

Mar-24 @ 00:00 UTC

BECMG 2317/2318 31009KT 9999 SKC QNH3002INS TX20/2321Z TN06/2312Z

Becoming

Becoming Conditions expected by Sat, Mar 23, 2019 @ 18:00 UTC

Wind
  • 310° at 9 KTS
Cloud Levels
  • Clear skies